createdAt,value
2017-10-10T00:00:00.027Z,13.86
2017-10-10T00:00:26.159Z,13.86
2017-10-10T00:00:52.285Z,13.87
2017-10-10T00:01:18.409Z,13.9
2017-10-10T00:01:44.524Z,13.86
2017-10-10T00:02:10.651Z,13.85
2017-10-10T00:02:36.770Z,13.86
2017-10-10T00:03:02.899Z,13.81
2017-10-10T00:03:29.067Z,13.93
2017-10-10T00:03:55.179Z,13.87
2017-10-10T00:04:21.296Z,13.92
2017-10-10T00:04:47.420Z,13.96
2017-10-10T00:05:13.548Z,13.92
2017-10-10T00:05:39.669Z,13.85
2017-10-10T00:06:05.796Z,14
2017-10-10T00:06:31.932Z,13.92
2017-10-10T00:06:58.055Z,13.92
2017-10-10T00:07:24.175Z,13.9
2017-10-10T00:07:50.298Z,13.87
2017-10-10T00:08:16.426Z,13.89
2017-10-10T00:08:42.553Z,13.87
2017-10-10T00:09:08.669Z,13.83
2017-10-10T00:09:34.786Z,13.81
2017-10-10T00:10:00.908Z,13.86
2017-10-10T00:10:27.036Z,13.79
2017-10-10T00:10:53.161Z,13.79
2017-10-10T00:11:19.276Z,13.83
2017-10-10T00:11:45.398Z,13.83
2017-10-10T00:12:11.520Z,13.75
2017-10-10T00:12:37.661Z,13.72
2017-10-10T00:13:03.781Z,13.78
2017-10-10T00:13:29.907Z,13.74
2017-10-10T00:13:56.033Z,13.68
2017-10-10T00:14:22.151Z,13.78
2017-10-10T00:14:48.269Z,13.77
2017-10-10T00:15:14.404Z,13.71
2017-10-10T00:15:40.529Z,13.74
2017-10-10T00:16:06.671Z,13.74
2017-10-10T00:16:32.783Z,13.77
2017-10-10T00:16:58.904Z,13.77
2017-10-10T00:17:25.028Z,13.71
2017-10-10T00:17:51.152Z,13.75
2017-10-10T00:18:17.288Z,13.78
2017-10-10T00:18:43.410Z,13.7
2017-10-10T00:19:09.531Z,13.59
2017-10-10T00:19:35.648Z,13.63
2017-10-10T00:20:01.779Z,13.67
2017-10-10T00:20:27.894Z,13.68
2017-10-10T00:20:54.016Z,13.72
2017-10-10T00:21:20.144Z,13.78
2017-10-10T00:21:46.266Z,13.75
2017-10-10T00:22:12.382Z,13.77
2017-10-10T00:22:38.527Z,13.77
2017-10-10T00:23:04.655Z,13.86
2017-10-10T00:23:30.775Z,13.75
2017-10-10T00:23:56.900Z,13.77
2017-10-10T00:24:23.019Z,13.72
2017-10-10T00:24:49.165Z,13.78
2017-10-10T00:25:15.288Z,13.7
2017-10-10T00:25:41.406Z,13.71
2017-10-10T00:26:07.533Z,13.68
2017-10-10T00:26:33.649Z,13.56
2017-10-10T00:26:59.797Z,13.67
2017-10-10T00:27:25.915Z,13.65
2017-10-10T00:27:52.035Z,13.6
2017-10-10T00:28:18.162Z,13.63
2017-10-10T00:28:44.284Z,13.67
2017-10-10T00:29:10.411Z,13.71
2017-10-10T00:29:36.542Z,13.62
2017-10-10T00:30:02.669Z,13.75
2017-10-10T00:30:28.794Z,13.72
2017-10-10T00:30:54.912Z,13.77
2017-10-10T00:31:21.037Z,13.75
2017-10-10T00:31:47.178Z,13.75
2017-10-10T00:32:13.294Z,13.83
2017-10-10T00:32:39.421Z,13.86
2017-10-10T00:33:05.534Z,13.83
2017-10-10T00:33:31.661Z,13.85
2017-10-10T00:33:57.787Z,13.9
2017-10-10T00:34:23.914Z,13.9
2017-10-10T00:34:50.036Z,13.87
2017-10-10T00:35:16.158Z,13.92
2017-10-10T00:35:42.282Z,13.89
2017-10-10T00:36:08.397Z,13.96
2017-10-10T00:36:34.545Z,13.92
2017-10-10T00:37:00.672Z,13.9
2017-10-10T00:37:26.794Z,13.92
2017-10-10T00:37:52.910Z,13.97
2017-10-10T00:38:19.026Z,13.95
2017-10-10T00:38:45.148Z,13.86
2017-10-10T00:39:11.263Z,13.9
2017-10-10T00:39:37.395Z,13.96
2017-10-10T00:40:03.525Z,13.85
2017-10-10T00:40:29.667Z,13.93
2017-10-10T00:40:55.810Z,13.96
2017-10-10T00:41:21.930Z,13.95
2017-10-10T00:41:48.053Z,13.96
2017-10-10T00:42:14.177Z,13.89
2017-10-10T00:42:40.301Z,13.89
2017-10-10T00:43:06.420Z,13.85
2017-10-10T00:43:32.557Z,13.89
2017-10-10T00:43:58.684Z,13.83
2017-10-10T00:44:24.804Z,13.86
2017-10-10T00:44:50.921Z,13.83
2017-10-10T00:45:17.047Z,13.81
2017-10-10T00:45:43.171Z,13.85
2017-10-10T00:46:09.287Z,13.77
2017-10-10T00:46:35.431Z,13.85
2017-10-10T00:47:01.533Z,13.93
2017-10-10T00:47:27.660Z,13.81
2017-10-10T00:47:53.784Z,13.96
2017-10-10T00:48:19.903Z,13.9
2017-10-10T00:48:46.045Z,13.95
2017-10-10T00:49:12.174Z,13.86
2017-10-10T00:49:38.292Z,13.99
2017-10-10T00:50:04.420Z,13.86
2017-10-10T00:50:30.593Z,13.86
2017-10-10T00:50:56.681Z,13.86
2017-10-10T00:51:22.810Z,13.92
2017-10-10T00:51:48.949Z,13.93
2017-10-10T00:52:15.071Z,13.99
2017-10-10T00:52:41.200Z,13.96
2017-10-10T00:53:07.346Z,13.97
2017-10-10T00:53:33.469Z,13.93
2017-10-10T00:53:59.592Z,14
2017-10-10T00:54:25.712Z,13.86
2017-10-10T00:54:51.834Z,13.9
2017-10-10T00:55:17.952Z,13.86
2017-10-10T00:55:44.076Z,13.86
2017-10-10T00:56:10.200Z,14
2017-10-10T00:56:36.325Z,13.89
2017-10-10T00:57:02.446Z,13.95
2017-10-10T00:57:28.562Z,13.93
2017-10-10T00:57:54.680Z,13.9
2017-10-10T00:58:20.810Z,13.96
2017-10-10T00:58:46.934Z,13.87
2017-10-10T00:59:13.055Z,13.92
2017-10-10T00:59:39.182Z,13.89
2017-10-10T01:00:05.308Z,13.92
2017-10-10T01:00:31.424Z,13.99
2017-10-10T01:00:57.541Z,13.85
2017-10-10T01:01:23.672Z,13.86
2017-10-10T01:01:49.794Z,13.93
2017-10-10T01:02:15.909Z,13.93
2017-10-10T01:02:42.030Z,13.95
2017-10-10T01:03:08.151Z,13.92
2017-10-10T01:03:34.271Z,13.99
2017-10-10T01:04:00.418Z,13.99
2017-10-10T01:04:26.560Z,14
2017-10-10T01:04:52.675Z,14
2017-10-10T01:05:18.803Z,14.05
2017-10-10T01:05:44.919Z,14.08
2017-10-10T01:06:11.040Z,13.96
2017-10-10T01:06:37.167Z,14.11
2017-10-10T01:07:03.290Z,13.97
2017-10-10T01:07:29.426Z,14.04
2017-10-10T01:07:55.546Z,13.97
2017-10-10T01:08:21.673Z,13.97
2017-10-10T01:08:47.790Z,14
2017-10-10T01:09:13.917Z,13.97
2017-10-10T01:09:40.041Z,14
2017-10-10T01:10:06.160Z,14.15
2017-10-10T01:10:32.283Z,14
2017-10-10T01:10:58.399Z,14.14
2017-10-10T01:11:24.527Z,14.12
2017-10-10T01:11:50.646Z,14.08
2017-10-10T01:12:16.772Z,14.1
2017-10-10T01:12:42.890Z,14.08
2017-10-10T01:13:09.012Z,13.96
2017-10-10T01:13:35.138Z,14.03
2017-10-10T01:14:01.256Z,13.99
2017-10-10T01:14:27.381Z,14.04
2017-10-10T01:14:53.506Z,13.97
2017-10-10T01:15:19.628Z,13.99
2017-10-10T01:15:45.752Z,13.93
2017-10-10T01:16:11.869Z,13.92
2017-10-10T01:16:37.990Z,13.97
2017-10-10T01:17:04.112Z,13.92
2017-10-10T01:17:30.227Z,13.85
2017-10-10T01:17:56.354Z,13.83
2017-10-10T01:18:22.498Z,13.9
2017-10-10T01:18:48.607Z,13.92
2017-10-10T01:19:14.731Z,13.97
2017-10-10T01:19:40.846Z,13.93
2017-10-10T01:20:06.975Z,13.92
2017-10-10T01:20:33.098Z,13.92
2017-10-10T01:20:59.235Z,13.97
2017-10-10T01:21:25.355Z,14
2017-10-10T01:21:51.476Z,13.97
2017-10-10T01:22:17.606Z,13.92
2017-10-10T01:22:43.719Z,13.99
2017-10-10T01:23:09.836Z,13.93
2017-10-10T01:23:35.968Z,13.93
2017-10-10T01:24:02.091Z,13.96
2017-10-10T01:24:28.210Z,13.99
2017-10-10T01:24:54.336Z,14.05
2017-10-10T01:25:20.454Z,14.05
2017-10-10T01:25:46.581Z,14
2017-10-10T01:26:12.707Z,14.1
2017-10-10T01:26:38.822Z,14.11
2017-10-10T01:27:04.942Z,14.14
2017-10-10T01:27:31.069Z,14.12
2017-10-10T01:27:57.207Z,14.2
2017-10-10T01:28:23.332Z,14.12
2017-10-10T01:28:49.459Z,14.11
2017-10-10T01:29:15.574Z,14.23
2017-10-10T01:29:41.702Z,14.23
2017-10-10T01:30:07.819Z,14.2
2017-10-10T01:30:33.941Z,14.11
2017-10-10T01:31:00.086Z,14.12
2017-10-10T01:31:26.230Z,14.15
2017-10-10T01:31:52.353Z,14.17
2017-10-10T01:32:18.472Z,14.1
2017-10-10T01:32:44.600Z,14.11
2017-10-10T01:33:10.718Z,14.2
2017-10-10T01:33:36.846Z,14.18
2017-10-10T01:34:02.958Z,14.14
2017-10-10T01:34:29.082Z,14.1
2017-10-10T01:34:55.212Z,14.08
2017-10-10T01:35:21.328Z,14.03
2017-10-10T01:35:47.449Z,14.11
2017-10-10T01:36:13.599Z,14.05
2017-10-10T01:36:39.723Z,14
2017-10-10T01:37:05.841Z,13.93
2017-10-10T01:37:31.992Z,14.03
2017-10-10T01:37:58.106Z,13.87
2017-10-10T01:38:24.226Z,13.96
2017-10-10T01:38:50.351Z,14.04
2017-10-10T01:39:16.480Z,13.97
2017-10-10T01:39:42.600Z,13.97
2017-10-10T01:40:08.743Z,14.04
2017-10-10T01:40:34.835Z,13.97
2017-10-10T01:41:00.953Z,14.05
2017-10-10T01:41:27.080Z,14
2017-10-10T01:41:53.202Z,13.97
2017-10-10T01:42:19.348Z,13.97
2017-10-10T01:42:45.466Z,13.97
2017-10-10T01:43:11.589Z,13.99
2017-10-10T01:43:37.711Z,13.99
2017-10-10T01:44:03.843Z,13.99
2017-10-10T01:44:29.993Z,13.97
2017-10-10T01:44:56.101Z,14
2017-10-10T01:45:22.235Z,13.92
2017-10-10T01:45:48.369Z,13.93
2017-10-10T01:46:14.493Z,14.07
2017-10-10T01:46:40.627Z,14.03
2017-10-10T01:47:06.736Z,14.11
2017-10-10T01:47:32.856Z,13.99
2017-10-10T01:47:58.984Z,14.03
2017-10-10T01:48:25.125Z,13.99
2017-10-10T01:48:51.253Z,13.99
2017-10-10T01:49:17.369Z,14.03
2017-10-10T01:49:43.494Z,13.95
2017-10-10T01:50:09.611Z,14
2017-10-10T01:50:35.739Z,13.92
2017-10-10T01:51:01.853Z,14
2017-10-10T01:51:27.977Z,13.9
2017-10-10T01:51:54.095Z,13.96
2017-10-10T01:52:20.216Z,13.92
2017-10-10T01:52:46.342Z,13.86
2017-10-10T01:53:12.465Z,13.85
2017-10-10T01:53:38.587Z,13.95
2017-10-10T01:54:04.706Z,13.86
2017-10-10T01:54:30.836Z,13.87
2017-10-10T01:54:56.949Z,13.86
2017-10-10T01:55:23.085Z,13.87
2017-10-10T01:55:49.198Z,13.93
2017-10-10T01:56:15.315Z,14
2017-10-10T01:56:41.444Z,14.05
2017-10-10T01:57:07.562Z,14
2017-10-10T01:57:33.701Z,14
2017-10-10T01:57:59.829Z,13.97
2017-10-10T01:58:25.949Z,14
2017-10-10T01:58:52.076Z,14
2017-10-10T01:59:18.198Z,13.95
2017-10-10T01:59:44.317Z,13.96
2017-10-10T02:00:10.464Z,13.96
2017-10-10T02:00:36.589Z,13.89
2017-10-10T02:01:02.701Z,13.96
2017-10-10T02:01:28.822Z,14.03
2017-10-10T02:01:54.950Z,13.95
2017-10-10T02:02:21.089Z,14
2017-10-10T02:02:47.213Z,13.9
2017-10-10T02:03:13.340Z,13.86
2017-10-10T02:03:39.464Z,13.96
2017-10-10T02:04:05.598Z,13.97
2017-10-10T02:04:31.727Z,13.97
2017-10-10T02:04:57.843Z,13.9
2017-10-10T02:05:23.961Z,13.95
2017-10-10T02:05:50.086Z,13.89
2017-10-10T02:06:16.206Z,13.99
2017-10-10T02:06:42.337Z,13.92
2017-10-10T02:07:08.459Z,13.96
2017-10-10T02:07:34.576Z,13.95
2017-10-10T02:08:00.716Z,13.93
2017-10-10T02:08:26.837Z,13.89
2017-10-10T02:08:52.966Z,13.87
2017-10-10T02:09:19.087Z,13.89
2017-10-10T02:09:45.213Z,13.89
2017-10-10T02:10:11.335Z,13.86
2017-10-10T02:10:37.470Z,13.89
2017-10-10T02:11:03.583Z,13.78
2017-10-10T02:11:29.701Z,13.86
2017-10-10T02:11:55.827Z,13.89
2017-10-10T02:12:21.945Z,13.93
2017-10-10T02:12:48.074Z,13.83
2017-10-10T02:13:14.199Z,13.85
2017-10-10T02:13:40.322Z,13.95
2017-10-10T02:14:06.438Z,13.89
2017-10-10T02:14:32.564Z,13.9
2017-10-10T02:14:58.686Z,13.86
2017-10-10T02:15:24.804Z,13.9
2017-10-10T02:15:50.931Z,14
2017-10-10T02:16:17.054Z,13.99
2017-10-10T02:16:43.191Z,13.96
2017-10-10T02:17:09.318Z,13.99
2017-10-10T02:17:35.432Z,13.96
2017-10-10T02:18:01.559Z,13.96
2017-10-10T02:18:27.682Z,14
2017-10-10T02:18:53.802Z,13.99
2017-10-10T02:19:19.925Z,14
2017-10-10T02:19:46.048Z,14.11
2017-10-10T02:20:12.215Z,14
2017-10-10T02:20:38.351Z,14.1
2017-10-10T02:21:04.476Z,14.05
2017-10-10T02:21:30.592Z,13.99
2017-10-10T02:21:56.713Z,14.03
2017-10-10T02:22:22.840Z,13.92
2017-10-10T02:22:48.963Z,14
2017-10-10T02:23:15.080Z,13.87
2017-10-10T02:23:41.207Z,13.96
2017-10-10T02:24:07.336Z,13.87
2017-10-10T02:24:33.452Z,13.89
2017-10-10T02:24:59.579Z,13.93
2017-10-10T02:25:25.695Z,13.97
2017-10-10T02:25:51.813Z,13.95
2017-10-10T02:26:17.941Z,13.92
2017-10-10T02:26:44.059Z,13.97
2017-10-10T02:27:10.184Z,13.9
2017-10-10T02:27:36.306Z,13.96
2017-10-10T02:28:02.422Z,13.9
2017-10-10T02:28:28.552Z,13.86
2017-10-10T02:28:54.673Z,13.85
2017-10-10T02:29:20.791Z,13.89
2017-10-10T02:29:46.922Z,13.93
2017-10-10T02:30:13.042Z,13.97
2017-10-10T02:30:39.156Z,13.96
2017-10-10T02:31:05.288Z,13.97
2017-10-10T02:31:31.415Z,13.93
2017-10-10T02:31:57.532Z,13.86
2017-10-10T02:32:23.653Z,13.85
2017-10-10T02:32:49.768Z,13.96
2017-10-10T02:33:15.889Z,13.93
2017-10-10T02:33:42.015Z,13.97
2017-10-10T02:34:08.140Z,14
2017-10-10T02:34:34.276Z,14.03
2017-10-10T02:35:00.403Z,14
2017-10-10T02:35:26.540Z,13.99
2017-10-10T02:35:52.643Z,14
2017-10-10T02:36:18.796Z,14.1
2017-10-10T02:36:44.903Z,14.11
2017-10-10T02:37:11.030Z,14.12
2017-10-10T02:37:37.152Z,14.12
2017-10-10T02:38:03.269Z,14.15
2017-10-10T02:38:29.390Z,14.15
2017-10-10T02:38:55.519Z,14.18
2017-10-10T02:39:21.636Z,14.11
2017-10-10T02:39:47.769Z,14.1
2017-10-10T02:40:13.883Z,14.1
2017-10-10T02:40:40.005Z,14.1
2017-10-10T02:41:06.126Z,14.12
2017-10-10T02:41:32.247Z,14.1
2017-10-10T02:41:58.375Z,14.17
2017-10-10T02:42:24.490Z,14.15
2017-10-10T02:42:50.639Z,14.15
2017-10-10T02:43:16.764Z,14.11
2017-10-10T02:43:42.875Z,14.26
2017-10-10T02:44:09.003Z,14.22
2017-10-10T02:44:35.121Z,14.18
2017-10-10T02:45:01.256Z,14.26
2017-10-10T02:45:27.380Z,14.23
2017-10-10T02:45:53.496Z,14.26
2017-10-10T02:46:19.614Z,14.17
2017-10-10T02:46:45.736Z,14.25
2017-10-10T02:47:11.862Z,14.17
2017-10-10T02:47:37.979Z,14.22
2017-10-10T02:48:04.103Z,14.15
2017-10-10T02:48:30.224Z,14.17
2017-10-10T02:48:56.344Z,14.22
2017-10-10T02:49:22.471Z,14.1
2017-10-10T02:49:48.606Z,14.14
2017-10-10T02:50:14.735Z,14.12
2017-10-10T02:50:40.849Z,14.11
2017-10-10T02:51:06.971Z,14.1
2017-10-10T02:51:33.090Z,14.22
2017-10-10T02:51:59.210Z,14.14
2017-10-10T02:52:25.336Z,14.14
2017-10-10T02:52:51.454Z,14.14
2017-10-10T02:53:17.574Z,14.14
2017-10-10T02:53:43.697Z,14.17
2017-10-10T02:54:09.823Z,14.15
2017-10-10T02:54:35.948Z,14.15
2017-10-10T02:55:02.090Z,14.14
2017-10-10T02:55:28.223Z,14.2
2017-10-10T02:55:54.344Z,14.11
2017-10-10T02:56:20.461Z,14.12
2017-10-10T02:56:46.592Z,14.12
2017-10-10T02:57:12.724Z,14.07
2017-10-10T02:57:38.844Z,14.1
2017-10-10T02:58:04.971Z,14.12
2017-10-10T02:58:31.118Z,14.11
2017-10-10T02:58:57.239Z,14.05
2017-10-10T02:59:23.361Z,14.07
2017-10-10T02:59:49.477Z,14.03
2017-10-10T03:00:15.603Z,13.93
2017-10-10T03:00:41.720Z,13.99
2017-10-10T03:01:07.842Z,14.04
2017-10-10T03:01:33.968Z,13.99
2017-10-10T03:02:00.089Z,13.99
2017-10-10T03:02:26.211Z,13.99
2017-10-10T03:02:52.338Z,13.99
2017-10-10T03:03:18.460Z,13.97
2017-10-10T03:03:44.583Z,13.92
2017-10-10T03:04:10.701Z,13.97
2017-10-10T03:04:36.819Z,13.92
2017-10-10T03:05:02.942Z,13.85
2017-10-10T03:05:29.070Z,13.96
2017-10-10T03:05:55.190Z,13.95
2017-10-10T03:06:21.310Z,13.9
2017-10-10T03:06:47.437Z,13.93
2017-10-10T03:07:13.551Z,13.87
2017-10-10T03:07:39.679Z,13.92
2017-10-10T03:08:05.801Z,13.86
2017-10-10T03:08:31.923Z,13.96
2017-10-10T03:08:58.049Z,13.97
2017-10-10T03:09:24.166Z,13.99
2017-10-10T03:09:50.291Z,13.9
2017-10-10T03:10:16.410Z,13.87
2017-10-10T03:10:42.525Z,13.9
2017-10-10T03:11:08.652Z,13.9
2017-10-10T03:11:34.773Z,13.93
2017-10-10T03:12:00.891Z,13.89
2017-10-10T03:12:27.018Z,13.92
2017-10-10T03:12:53.158Z,13.92
2017-10-10T03:13:19.283Z,13.87
2017-10-10T03:13:45.401Z,13.85
2017-10-10T03:14:11.527Z,13.9
2017-10-10T03:14:37.647Z,13.89
2017-10-10T03:15:03.771Z,13.83
2017-10-10T03:15:29.891Z,13.83
2017-10-10T03:15:56.016Z,13.89
2017-10-10T03:16:22.135Z,13.87
2017-10-10T03:16:48.259Z,13.93
2017-10-10T03:17:14.399Z,13.95
2017-10-10T03:17:40.528Z,13.96
2017-10-10T03:18:06.652Z,14
2017-10-10T03:18:32.777Z,13.95
2017-10-10T03:18:58.890Z,13.92
2017-10-10T03:19:25.009Z,13.9
2017-10-10T03:19:51.134Z,13.86
2017-10-10T03:20:17.258Z,13.95
2017-10-10T03:20:43.396Z,13.89
2017-10-10T03:21:09.523Z,13.9
2017-10-10T03:21:35.639Z,13.92
2017-10-10T03:22:01.772Z,13.99
2017-10-10T03:22:27.911Z,13.89
2017-10-10T03:22:54.030Z,13.9
2017-10-10T03:23:20.151Z,13.9
2017-10-10T03:23:46.275Z,13.92
2017-10-10T03:24:12.401Z,13.92
2017-10-10T03:24:38.512Z,13.95
2017-10-10T03:25:04.636Z,13.79
2017-10-10T03:25:30.754Z,13.83
2017-10-10T03:25:56.885Z,13.95
2017-10-10T03:26:23.006Z,13.93
2017-10-10T03:26:49.121Z,13.95
2017-10-10T03:27:15.251Z,13.86
2017-10-10T03:27:41.371Z,13.79
2017-10-10T03:28:07.492Z,13.75
2017-10-10T03:28:33.618Z,13.85
2017-10-10T03:28:59.741Z,13.75
2017-10-10T03:29:25.862Z,13.77
2017-10-10T03:29:51.986Z,13.74
2017-10-10T03:30:18.109Z,13.83
2017-10-10T03:30:44.228Z,13.83
2017-10-10T03:31:10.345Z,13.75
2017-10-10T03:31:36.474Z,13.83
2017-10-10T03:32:02.628Z,13.89
2017-10-10T03:32:28.748Z,13.85
2017-10-10T03:32:54.869Z,13.79
2017-10-10T03:33:21.013Z,13.9
2017-10-10T03:33:47.134Z,13.89
2017-10-10T03:34:13.255Z,13.87
2017-10-10T03:34:39.382Z,13.86
2017-10-10T03:35:05.505Z,13.95
2017-10-10T03:35:31.622Z,13.93
2017-10-10T03:35:57.749Z,13.89
2017-10-10T03:36:23.871Z,13.83
2017-10-10T03:36:49.985Z,13.97
2017-10-10T03:37:16.113Z,13.99
2017-10-10T03:37:42.229Z,14
2017-10-10T03:38:08.362Z,13.89
2017-10-10T03:38:34.503Z,13.96
2017-10-10T03:39:00.624Z,13.87
2017-10-10T03:39:26.748Z,14
2017-10-10T03:39:52.870Z,13.81
2017-10-10T03:40:18.989Z,13.92
2017-10-10T03:40:45.108Z,13.92
2017-10-10T03:41:11.235Z,13.92
2017-10-10T03:41:37.357Z,13.93
2017-10-10T03:42:03.481Z,13.99
2017-10-10T03:42:29.607Z,13.95
2017-10-10T03:42:55.719Z,13.97
2017-10-10T03:43:21.843Z,13.87
2017-10-10T03:43:47.970Z,13.99
2017-10-10T03:44:14.096Z,13.89
2017-10-10T03:44:40.208Z,13.96
2017-10-10T03:45:06.336Z,13.99
2017-10-10T03:45:32.458Z,13.93
2017-10-10T03:45:58.585Z,13.97
2017-10-10T03:46:24.700Z,13.9
2017-10-10T03:46:50.831Z,13.99
2017-10-10T03:47:16.949Z,13.99
2017-10-10T03:47:43.073Z,13.99
2017-10-10T03:48:09.189Z,13.96
2017-10-10T03:48:35.322Z,13.89
2017-10-10T03:49:01.446Z,13.93
2017-10-10T03:49:27.567Z,13.99
2017-10-10T03:49:53.700Z,13.97
2017-10-10T03:50:19.851Z,13.97
2017-10-10T03:50:45.989Z,13.97
2017-10-10T03:51:12.114Z,13.99
2017-10-10T03:51:38.231Z,13.9
2017-10-10T03:52:04.358Z,13.9
2017-10-10T03:52:30.483Z,13.97
2017-10-10T03:52:56.601Z,13.9
2017-10-10T03:53:22.726Z,13.89
2017-10-10T03:53:48.845Z,13.95
2017-10-10T03:54:14.970Z,13.86
2017-10-10T03:54:41.088Z,13.85
2017-10-10T03:55:07.218Z,13.97
2017-10-10T03:55:33.337Z,13.97
2017-10-10T03:55:59.474Z,13.96
2017-10-10T03:56:25.601Z,13.97
2017-10-10T03:56:51.715Z,13.99
2017-10-10T03:57:17.840Z,13.99
2017-10-10T03:57:43.967Z,13.87
2017-10-10T03:58:10.084Z,13.93
2017-10-10T03:58:36.211Z,13.99
2017-10-10T03:59:02.329Z,13.93
2017-10-10T03:59:28.477Z,14
2017-10-10T03:59:54.596Z,14
2017-10-10T04:00:20.722Z,14
2017-10-10T04:00:46.839Z,14
2017-10-10T04:01:12.960Z,13.99
2017-10-10T04:01:39.106Z,13.97
2017-10-10T04:02:05.229Z,13.99
2017-10-10T04:02:31.346Z,13.96
2017-10-10T04:02:57.472Z,13.96
2017-10-10T04:03:23.601Z,14.05
2017-10-10T04:03:49.718Z,13.97
2017-10-10T04:04:15.844Z,13.95
2017-10-10T04:04:41.979Z,14
2017-10-10T04:05:08.102Z,13.86
2017-10-10T04:05:34.217Z,13.89
2017-10-10T04:06:00.366Z,13.89
2017-10-10T04:06:26.485Z,13.89
2017-10-10T04:06:52.611Z,13.86
2017-10-10T04:07:18.732Z,13.99
2017-10-10T04:07:44.850Z,13.97
2017-10-10T04:08:10.977Z,13.9
2017-10-10T04:08:37.097Z,13.95
2017-10-10T04:09:03.224Z,14
2017-10-10T04:09:29.351Z,13.92
2017-10-10T04:09:55.472Z,13.9
2017-10-10T04:10:21.593Z,13.96
2017-10-10T04:10:47.716Z,13.97
2017-10-10T04:11:13.842Z,13.95
2017-10-10T04:11:39.963Z,13.97
2017-10-10T04:12:06.085Z,14.03
2017-10-10T04:12:32.204Z,13.99
2017-10-10T04:12:58.337Z,13.95
2017-10-10T04:13:24.460Z,13.96
2017-10-10T04:13:50.591Z,13.93
2017-10-10T04:14:16.732Z,13.97
2017-10-10T04:14:42.850Z,14.03
2017-10-10T04:15:08.990Z,14
2017-10-10T04:15:35.104Z,13.99
2017-10-10T04:16:01.226Z,14.03
2017-10-10T04:16:27.347Z,14
2017-10-10T04:16:53.494Z,13.92
2017-10-10T04:17:19.588Z,13.95
2017-10-10T04:17:45.738Z,13.96
2017-10-10T04:18:11.854Z,13.97
2017-10-10T04:18:37.976Z,13.97
2017-10-10T04:19:04.100Z,13.99
2017-10-10T04:19:30.228Z,13.92
2017-10-10T04:19:56.346Z,14.04
2017-10-10T04:20:22.465Z,13.95
2017-10-10T04:20:48.592Z,14.04
2017-10-10T04:21:14.717Z,14.03
2017-10-10T04:21:40.838Z,13.97
2017-10-10T04:22:07.201Z,13.95
2017-10-10T04:22:33.351Z,13.97
2017-10-10T04:22:59.753Z,13.95
2017-10-10T04:23:25.872Z,13.9
2017-10-10T04:23:51.999Z,14
2017-10-10T04:24:18.114Z,13.9
2017-10-10T04:24:44.237Z,13.99
2017-10-10T04:25:10.365Z,13.97
2017-10-10T04:25:36.484Z,13.99
2017-10-10T04:26:02.610Z,13.96
2017-10-10T04:26:28.728Z,13.96
2017-10-10T04:26:54.875Z,13.99
2017-10-10T04:27:21.002Z,14
2017-10-10T04:27:47.126Z,13.99
2017-10-10T04:28:13.255Z,13.97
2017-10-10T04:28:39.380Z,14.11
2017-10-10T04:29:05.496Z,14
2017-10-10T04:29:31.636Z,13.99
2017-10-10T04:29:57.779Z,13.99
2017-10-10T04:30:23.907Z,13.97
2017-10-10T04:30:50.032Z,14.1
2017-10-10T04:31:16.151Z,14.08
2017-10-10T04:31:42.277Z,14.12
2017-10-10T04:32:08.395Z,14.12
2017-10-10T04:32:34.521Z,14.11
2017-10-10T04:33:00.642Z,14.11
2017-10-10T04:33:26.793Z,14.15
2017-10-10T04:33:52.921Z,14.07
2017-10-10T04:34:19.045Z,14.11
2017-10-10T04:34:45.167Z,14.08
2017-10-10T04:35:11.282Z,14.1
2017-10-10T04:35:37.402Z,14.11
2017-10-10T04:36:03.527Z,14.12
2017-10-10T04:36:29.644Z,13.97
2017-10-10T04:36:55.766Z,14.15
2017-10-10T04:37:21.894Z,14.17
2017-10-10T04:37:48.015Z,14.23
2017-10-10T04:38:14.156Z,14.25
2017-10-10T04:38:40.279Z,14.28
2017-10-10T04:39:06.395Z,14.3
2017-10-10T04:39:32.513Z,14.26
2017-10-10T04:39:58.637Z,14.33
2017-10-10T04:40:24.761Z,14.25
2017-10-10T04:40:50.890Z,14.26
2017-10-10T04:41:17.007Z,14.25
2017-10-10T04:41:43.132Z,14.23
2017-10-10T04:42:09.256Z,14.26
2017-10-10T04:42:35.379Z,14.28
2017-10-10T04:43:01.509Z,14.18
2017-10-10T04:43:27.621Z,14.23
2017-10-10T04:43:53.743Z,14.26
2017-10-10T04:44:19.863Z,14.25
2017-10-10T04:44:45.983Z,14.33
2017-10-10T04:45:12.129Z,14.33
2017-10-10T04:45:38.277Z,14.4
2017-10-10T04:46:04.397Z,14.36
2017-10-10T04:46:30.521Z,14.32
2017-10-10T04:46:56.638Z,14.36
2017-10-10T04:47:22.781Z,14.3
2017-10-10T04:47:48.900Z,14.36
2017-10-10T04:48:15.040Z,14.28
2017-10-10T04:48:41.168Z,14.2
2017-10-10T04:49:07.290Z,14.23
2017-10-10T04:49:33.426Z,14.2
2017-10-10T04:49:59.562Z,14.29
2017-10-10T04:50:25.675Z,14.25
2017-10-10T04:50:51.826Z,14.26
2017-10-10T04:51:17.945Z,14.26
2017-10-10T04:51:44.087Z,14.12
2017-10-10T04:52:10.207Z,14.15
2017-10-10T04:52:36.326Z,14.23
2017-10-10T04:53:02.450Z,14.15
2017-10-10T04:53:28.567Z,14.28
2017-10-10T04:53:54.687Z,14.26
2017-10-10T04:54:20.813Z,14.23
2017-10-10T04:54:46.934Z,14.23
2017-10-10T04:55:13.062Z,14.33
2017-10-10T04:55:39.184Z,14.2
2017-10-10T04:56:05.307Z,14.29
2017-10-10T04:56:31.429Z,14.33
2017-10-10T04:56:57.554Z,14.3
2017-10-10T04:57:23.687Z,14.36
2017-10-10T04:57:50.577Z,14.37
2017-10-10T04:58:17.972Z,14.35
2017-10-10T04:58:44.079Z,14.43
2017-10-10T04:59:10.207Z,14.48
2017-10-10T04:59:36.336Z,14.41
2017-10-10T05:00:02.457Z,14.44
2017-10-10T05:00:28.582Z,14.48
2017-10-10T05:00:54.728Z,14.5
2017-10-10T05:01:20.852Z,14.5
2017-10-10T05:01:46.971Z,14.44
2017-10-10T05:02:13.100Z,14.45
2017-10-10T05:02:39.220Z,14.32
2017-10-10T05:03:05.338Z,14.35
2017-10-10T05:03:31.462Z,14.37
2017-10-10T05:03:57.583Z,14.3
2017-10-10T05:04:23.709Z,14.32
2017-10-10T05:04:49.828Z,14.36
2017-10-10T05:05:15.962Z,14.3
2017-10-10T05:05:42.078Z,14.3
2017-10-10T05:06:08.195Z,14.28
2017-10-10T05:06:34.320Z,14.29
2017-10-10T05:07:00.462Z,14.23
2017-10-10T05:07:26.588Z,14.25
2017-10-10T05:07:52.710Z,14.17
2017-10-10T05:08:18.827Z,14.29
2017-10-10T05:08:44.954Z,14.3
2017-10-10T05:09:11.070Z,14.4
2017-10-10T05:09:37.196Z,14.32
2017-10-10T05:10:03.320Z,14.4
2017-10-10T05:10:29.438Z,14.44
2017-10-10T05:10:55.562Z,14.43
2017-10-10T05:11:21.676Z,14.33
2017-10-10T05:11:47.800Z,14.35
2017-10-10T05:12:13.927Z,14.33
2017-10-10T05:12:40.044Z,14.33
2017-10-10T05:13:06.160Z,14.33
2017-10-10T05:13:32.287Z,14.32
2017-10-10T05:13:58.407Z,14.25
2017-10-10T05:14:24.555Z,14.29
2017-10-10T05:14:50.676Z,14.2
2017-10-10T05:15:16.800Z,14.15
2017-10-10T05:15:42.921Z,14.29
2017-10-10T05:16:09.040Z,14.25
2017-10-10T05:16:35.167Z,14.26
2017-10-10T05:17:01.287Z,14.28
2017-10-10T05:17:27.405Z,14.25
2017-10-10T05:17:53.532Z,14.2
2017-10-10T05:18:19.664Z,14.15
2017-10-10T05:18:45.782Z,14.25
2017-10-10T05:19:11.911Z,14.23
2017-10-10T05:19:38.072Z,14.12
2017-10-10T05:20:04.197Z,14.12
2017-10-10T05:20:30.321Z,14.22
2017-10-10T05:20:56.437Z,14.18
2017-10-10T05:21:22.566Z,14.14
2017-10-10T05:21:48.685Z,14.11
2017-10-10T05:22:14.802Z,14.17
2017-10-10T05:22:40.929Z,14.17
2017-10-10T05:23:07.081Z,14.17
2017-10-10T05:23:33.191Z,14.12
2017-10-10T05:23:59.313Z,14.12
2017-10-10T05:24:25.433Z,14.12
2017-10-10T05:24:51.575Z,14.26
2017-10-10T05:25:17.695Z,14.15
2017-10-10T05:25:43.821Z,14.12
2017-10-10T05:26:09.947Z,14.14
2017-10-10T05:26:36.110Z,14.12
2017-10-10T05:27:02.237Z,14.26
2017-10-10T05:27:29.075Z,14.1
2017-10-10T05:27:55.124Z,14.14
2017-10-10T05:28:21.261Z,14.14
2017-10-10T05:28:47.381Z,14.22
2017-10-10T05:29:13.499Z,14.18
2017-10-10T05:29:39.631Z,14.23
2017-10-10T05:30:05.752Z,14.22
2017-10-10T05:30:31.889Z,14.28
2017-10-10T05:30:58.021Z,14.22
2017-10-10T05:31:24.206Z,14.1
2017-10-10T05:31:50.376Z,14.2
2017-10-10T05:32:16.470Z,14.08
2017-10-10T05:32:42.594Z,14.15
2017-10-10T05:33:08.715Z,14.08
2017-10-10T05:33:34.842Z,14.1
2017-10-10T05:34:00.988Z,14.1
2017-10-10T05:34:27.107Z,14.08
2017-10-10T05:34:53.228Z,14.1
2017-10-10T05:35:19.359Z,14.08
2017-10-10T05:35:45.493Z,14.08
2017-10-10T05:36:11.611Z,13.96
2017-10-10T05:36:37.736Z,14
2017-10-10T05:37:03.854Z,14.11
2017-10-10T05:37:29.973Z,14.1
2017-10-10T05:37:56.093Z,14.08
2017-10-10T05:38:22.227Z,13.99
2017-10-10T05:38:48.354Z,13.99
2017-10-10T05:39:14.476Z,14.08